KSWW

Avenger Field Airport

Sweetwater, Texas, USA
METAR KSWW 191815Z AUTO 16017G22KT 10SM BKN034 29/19 A3003 RMK AO2 T02910190
Observed Flight Rules
Sep-19 @ 18:15 UTC (33 minutes ago) Visual Flight Rules
Wind Visibility Clouds
160° at 17 knots
 Gusting to 22 knots
10 miles
  • Broken at 3,400' AGL
Temperatures Readings
Current 29°C / 84°F
Dewpoint 19°C / 66°F
Humidity 55%
Altimeter 30.03" Hg
Pressure 1017 hPa
Elevation 727
METAR KSWW 191815Z AUTO 16017G22KT 10SM BKN034 29/19 A3003 RMK AO2 T02910190
Observed Flight Rules
Sep-19 @ 18:15 UTC
(33 minutes ago)
VFR
Wind Visibility
160° at 17 knots
 Gusting to 22 knots
10 miles
Clouds
  • Broken at 3,400' AGL
Temperature Dewpoint
29°C / 84°F 19°C / 66°F
Humidity Altimeter Pressure
55% 30.03" Hg 1017 hPa